Antero Reservoir, CO

12:23 AM MDT on June 22, 2018 (GMT -0600)
Foxtail Pines | | Change Station
Active Advisory: Fire Weather Warning

Elev 10240 ft 39.20 °N, 106.04 °W | Updated 10 seconds ago

Partly Cloudy
Partly Cloudy
42.6 °F
Feels Like 43 °F
N
0
Wind Variable Wind from NW
Gusts 0.0 mph

Today
High -- | Low -- °F
--% Chance of Precip.
Yesterday
High -- | Low -- °F
Precip. -- in
Pressure 29.84 in
Visibility 10.0 miles
Clouds Few 12000 ft
Windchill 43 °F
Dew Point 31 °F
Humidity 64%
Rainfall 0.00 in
Snow Depth Not available.
5:38 AM 8:34 PM
Waxing Gibbous, 69% visible
METAR KLXV 220553Z AUTO 18005KT 10SM FEW120 10/M04 A3038 RMK AO2 SLP104 T01001039 10211 20089 51000
Pressure 29.84 in
Visibility 10.0 miles
Clouds Few 12000 ft
Windchill 43 °F
Dew Point 31 °F
Humidity 64%
Rainfall 0.00 in
Snow Depth Not available.
5:38 AM 8:34 PM
Waxing Gibbous, 69% visible
METAR KLXV 220553Z AUTO 18005KT 10SM FEW120 10/M04 A3038 RMK AO2 SLP104 T01001039 10211 20089 51000

Get Your Daily Forecast Email!

Thanks for signing up!

Be on the lookout for a verification email in your inbox.

You'll start receiving severe weather alerts in your inbox..

×

10-Day Weather Forecast

Almanac

Astronomy

Jun. 22, 2018 Rise Set
Actual Time
Civil Twilight
Nautical Twilight
Astronomical Twilight
Moon
Length of Visible Light
Length of Day
Tomorrow will be .
, % of the Moon is Illuminated

Today's Extremes

State Highs State Lows

Community

WunderPhotos

Category 6

Welcome to Category 6. This is the collective home for Weather Underground's featured writeups by Dr. Jeff Masters (right), Bob Henson (left), Chris Burt, and other regular contributors.

Nearby

Air Quality

  Air Quality AQ Index Pollutant
Not available.

Snow Depth

Station Depth Elevation

Earthquake Activity

City Distance Mag. Time & Date
Minimum magnitude displayed is 2.5.

Coastal Water Temperatures

Place Temperature

Stations

Nearby Weather Stations

Station Location Temp. Windchill Dew Point Humidity Wind Precip. Elev Updated Type
                   

Watches & Warnings

Fire Weather Warning
Issued: 8:19 PM MDT Jun. 21, 2018 – National Weather Service

... Red flag warning remains in effect from 10 am to 9 PM MDT
Friday for wind and low relative humidity for fire weather zone
205 below 7500 feet...

* affected area... in Colorado, fire weather zone 205 Colorado
River headwaters below 7500 feet.

* Winds... west 10 to 20 mph with gusts up to 30 mph.

* Relative humidity... 13 to 18 percent.

* Impacts... rapid rates of fire growth and spread are possible
under these conditions.

Precautionary/preparedness actions...

A red flag warning means that critical fire weather conditions
are either occurring now, or will shortly. A combination of
strong winds, low relative humidity, and warm temperatures can
contribute to extreme fire behavior.